createdAt,value
2018-01-21T00:01:16.451Z,1.29
2018-01-21T00:03:44.042Z,1.28
2018-01-21T00:06:11.577Z,1.24
2018-01-21T00:08:39.188Z,1.23
2018-01-21T00:11:06.778Z,1.21
2018-01-21T00:13:34.379Z,1.15
2018-01-21T00:16:01.970Z,1.20
2018-01-21T00:18:29.510Z,1.17
2018-01-21T00:20:57.094Z,1.17
2018-01-21T00:23:24.699Z,1.17
2018-01-21T00:25:52.303Z,1.22
2018-01-21T00:28:19.898Z,1.27
2018-01-21T00:30:47.500Z,1.26
2018-01-21T00:33:15.042Z,1.25
2018-01-21T00:35:42.575Z,1.23
2018-01-21T00:38:10.115Z,1.22
2018-01-21T00:40:37.654Z,1.20
2018-01-21T00:43:05.315Z,1.15
2018-01-21T00:45:32.851Z,1.16
2018-01-21T00:48:00.448Z,1.19
2018-01-21T00:50:27.994Z,1.14
2018-01-21T00:52:55.525Z,1.09
2018-01-21T00:55:23.066Z,1.08
2018-01-21T00:57:50.659Z,1.03
2018-01-21T01:00:18.242Z,1.07
2018-01-21T01:02:45.776Z,1.10
2018-01-21T01:05:13.315Z,1.01
2018-01-21T01:07:40.975Z,0.98
2018-01-21T01:10:08.510Z,0.98
2018-01-21T01:12:36.060Z,0.98
2018-01-21T01:15:03.590Z,0.96
2018-01-21T01:17:31.171Z,0.95
2018-01-21T01:19:58.771Z,0.91
2018-01-21T01:22:26.310Z,0.90
2018-01-21T01:24:53.850Z,0.82
2018-01-21T01:27:21.445Z,0.79
2018-01-21T01:29:48.990Z,0.77
2018-01-21T01:32:22.039Z,0.76
2018-01-21T01:34:49.623Z,0.73
2018-01-21T01:37:17.161Z,0.66
2018-01-21T01:39:44.693Z,0.66
2018-01-21T01:42:12.241Z,0.63
2018-01-21T01:44:39.814Z,0.67
2018-01-21T01:47:07.422Z,0.69
2018-01-21T01:49:35.019Z,0.64
2018-01-21T01:52:02.598Z,0.60
2018-01-21T01:54:30.139Z,0.65
2018-01-21T01:56:57.735Z,0.64
2018-01-21T01:59:25.283Z,0.69
2018-01-21T02:01:52.874Z,0.73
2018-01-21T02:04:20.454Z,0.84
2018-01-21T02:06:48.039Z,0.83
2018-01-21T02:09:15.570Z,0.85
2018-01-21T02:11:43.102Z,0.89
2018-01-21T02:14:10.626Z,0.86
2018-01-21T02:16:38.306Z,0.80
2018-01-21T02:19:05.849Z,0.83
2018-01-21T02:21:33.438Z,0.78
2018-01-21T02:24:00.970Z,0.73
2018-01-21T02:26:28.549Z,0.66
2018-01-21T02:28:56.145Z,0.62
2018-01-21T02:31:23.731Z,0.62
2018-01-21T02:33:51.333Z,0.65
2018-01-21T02:36:18.914Z,0.60
2018-01-21T02:38:46.441Z,0.55
2018-01-21T02:41:13.986Z,0.50
2018-01-21T02:43:41.575Z,0.46
2018-01-21T02:46:09.223Z,0.44
2018-01-21T02:48:36.818Z,0.41
2018-01-21T02:51:04.349Z,0.40
2018-01-21T02:53:31.891Z,0.34
2018-01-21T02:55:59.434Z,0.26
2018-01-21T02:58:27.032Z,0.22
2018-01-21T03:00:54.573Z,0.21
2018-01-21T03:03:22.162Z,0.18
2018-01-21T03:05:49.710Z,0.15
2018-01-21T03:08:17.242Z,0.06
2018-01-21T03:10:44.789Z,0.05
2018-01-21T03:13:12.322Z,0.01
2018-01-21T03:15:39.951Z,0.01
2018-01-21T03:18:07.485Z,0.05
2018-01-21T03:20:35.027Z,0.03
2018-01-21T03:23:02.647Z,0.04
2018-01-21T03:25:30.202Z,-0.01
2018-01-21T03:27:57.749Z,-0.07
2018-01-21T03:30:25.296Z,-0.08
2018-01-21T03:32:52.939Z,-0.10
2018-01-21T03:35:20.535Z,-0.13
2018-01-21T03:37:48.075Z,-0.11
2018-01-21T03:40:15.685Z,-0.11
2018-01-21T03:42:43.221Z,-0.18
2018-01-21T03:45:10.765Z,-0.19
2018-01-21T03:47:38.303Z,-0.20
2018-01-21T03:50:05.944Z,-0.25
2018-01-21T03:52:33.542Z,-0.34
2018-01-21T03:55:01.090Z,-0.30
2018-01-21T03:57:28.642Z,-0.29
2018-01-21T03:59:56.247Z,-0.25
2018-01-21T04:02:23.854Z,-0.25
2018-01-21T04:04:51.395Z,-0.32
2018-01-21T04:07:18.974Z,-0.34
2018-01-21T04:09:46.511Z,-0.30
2018-01-21T04:12:14.054Z,-0.26
2018-01-21T04:14:41.670Z,-0.29
2018-01-21T04:17:09.285Z,-0.35
2018-01-21T04:19:36.842Z,-0.33
2018-01-21T04:22:04.389Z,-0.35
2018-01-21T04:24:32.006Z,-0.32
2018-01-21T04:26:59.556Z,-0.30
2018-01-21T04:29:27.103Z,-0.22
2018-01-21T04:31:54.651Z,-0.17
2018-01-21T04:34:22.193Z,-0.09
2018-01-21T04:36:49.742Z,0.07
2018-01-21T04:39:17.278Z,0.14
2018-01-21T04:41:44.863Z,0.22
2018-01-21T04:44:12.398Z,0.23
2018-01-21T04:46:39.937Z,0.29
2018-01-21T04:49:07.481Z,0.31
2018-01-21T04:51:35.075Z,0.37
2018-01-21T04:54:02.618Z,0.35
2018-01-21T04:56:30.284Z,0.41
2018-01-21T04:58:57.861Z,0.40
2018-01-21T05:01:25.401Z,0.39
2018-01-21T05:03:52.939Z,0.35
2018-01-21T05:06:24.566Z,0.34
2018-01-21T05:08:52.101Z,0.31
2018-01-21T05:11:19.638Z,0.28
2018-01-21T05:13:47.174Z,0.33
2018-01-21T05:16:14.808Z,0.35
2018-01-21T05:18:42.342Z,0.28
2018-01-21T05:21:09.948Z,0.31
2018-01-21T05:23:37.493Z,0.38
2018-01-21T05:26:05.882Z,0.42
2018-01-21T05:28:33.425Z,0.47
2018-01-21T05:31:01.021Z,0.52
2018-01-21T05:33:28.597Z,0.57
2018-01-21T05:35:56.198Z,0.61
2018-01-21T05:38:23.729Z,0.66
2018-01-21T05:40:51.315Z,0.69
2018-01-21T05:43:18.851Z,0.61
2018-01-21T05:45:46.398Z,0.67
2018-01-21T05:48:13.939Z,0.74
2018-01-21T05:50:41.547Z,0.75
2018-01-21T05:53:09.093Z,0.79
2018-01-21T05:55:36.630Z,0.77
2018-01-21T05:58:04.179Z,0.73
2018-01-21T06:00:31.717Z,0.77
2018-01-21T06:02:59.320Z,0.80
2018-01-21T06:05:26.924Z,0.83
2018-01-21T06:07:54.519Z,0.82
2018-01-21T06:10:22.070Z,0.81
2018-01-21T06:12:49.605Z,0.84
2018-01-21T06:15:17.151Z,0.95
2018-01-21T06:17:44.713Z,0.99
2018-01-21T06:20:12.355Z,1.02
2018-01-21T06:22:39.893Z,1.07
2018-01-21T06:25:07.482Z,1.11
2018-01-21T06:27:35.078Z,1.15
2018-01-21T06:30:02.616Z,1.09
2018-01-21T06:32:30.163Z,1.03
2018-01-21T06:34:57.715Z,1.01
2018-01-21T06:37:25.250Z,1.05
2018-01-21T06:39:52.843Z,0.99
2018-01-21T06:42:20.470Z,1.08
2018-01-21T06:44:47.998Z,1.11
2018-01-21T06:47:15.529Z,1.23
2018-01-21T06:49:43.084Z,1.38
2018-01-21T06:52:10.682Z,1.52
2018-01-21T06:54:38.222Z,1.68
2018-01-21T06:57:05.771Z,1.79
2018-01-21T06:59:33.406Z,1.84
2018-01-21T07:02:00.943Z,1.95
2018-01-21T07:04:28.479Z,2.12
2018-01-21T07:06:56.021Z,2.27
2018-01-21T07:09:23.623Z,2.35
2018-01-21T07:11:51.179Z,2.51
2018-01-21T07:14:18.740Z,2.60
2018-01-21T07:16:46.383Z,2.58
2018-01-21T07:19:13.918Z,2.73
2018-01-21T07:21:41.538Z,2.78
2018-01-21T07:24:09.074Z,2.72
2018-01-21T07:26:36.613Z,2.71
2018-01-21T07:29:04.217Z,2.74
2018-01-21T07:31:31.806Z,2.74
